createdAt,value
2023-04-25T00:02:03.365Z,10.50
2023-04-25T00:04:35.004Z,11.14
2023-04-25T00:07:05.761Z,10.72
2023-04-25T00:09:35.007Z,10.98
2023-04-25T00:12:02.537Z,11.19
2023-04-25T00:14:30.531Z,11.16
2023-04-25T00:16:58.561Z,10.91
2023-04-25T00:19:25.798Z,10.91
2023-04-25T00:21:52.574Z,11.15
2023-04-25T00:24:19.368Z,11.22
2023-04-25T00:26:46.137Z,10.55
2023-04-25T00:29:12.844Z,11.07
2023-04-25T00:31:39.727Z,11.22
2023-04-25T00:34:07.738Z,11.21
2023-04-25T00:36:36.096Z,10.87
2023-04-25T00:39:03.858Z,11.07
2023-04-25T00:41:31.596Z,10.74
2023-04-25T00:44:00.310Z,10.99
2023-04-25T00:46:27.149Z,10.93
2023-04-25T00:48:53.994Z,11.15
2023-04-25T00:51:22.216Z,11.05
2023-04-25T00:53:51.548Z,11.16
2023-04-25T00:56:19.118Z,11.05
2023-04-25T00:58:46.610Z,10.86
2023-04-25T01:01:14.360Z,10.73
2023-04-25T01:03:44.675Z,10.07
2023-04-25T01:06:13.424Z,11.08
2023-04-25T01:08:40.406Z,11.07
2023-04-25T01:11:07.729Z,11.06
2023-04-25T01:13:35.335Z,10.95
2023-04-25T01:16:05.470Z,10.98
2023-04-25T01:18:33.099Z,10.94
2023-04-25T01:21:14.232Z,10.33
2023-04-25T01:23:42.234Z,10.86
2023-04-25T01:26:12.897Z,10.79
2023-04-25T01:28:42.379Z,10.73
2023-04-25T01:31:12.920Z,10.71
2023-04-25T01:33:42.957Z,10.69
2023-04-25T01:36:10.149Z,10.36
2023-04-25T01:38:37.048Z,10.33
2023-04-25T01:41:04.176Z,10.09
2023-04-25T01:43:31.333Z,10.53
2023-04-25T01:46:01.397Z,10.48
2023-04-25T01:48:28.317Z,10.47
2023-04-25T01:50:55.264Z,10.09
2023-04-25T01:53:22.258Z,10.37
2023-04-25T01:55:49.188Z,9.93
2023-04-25T01:58:19.259Z,10.31
2023-04-25T02:01:12.017Z,10.05
2023-04-25T02:03:45.670Z,10.18
2023-04-25T02:06:24.575Z,9.99
2023-04-25T02:08:53.597Z,10.12
2023-04-25T02:11:20.474Z,9.90
2023-04-25T02:13:56.535Z,10.16
2023-04-25T02:16:53.438Z,9.71
2023-04-25T02:19:20.346Z,9.79
2023-04-25T02:21:47.714Z,10.21
2023-04-25T02:24:14.698Z,9.81
2023-04-25T02:26:41.553Z,10.18
2023-04-25T02:29:09.873Z,9.96
2023-04-25T02:31:36.704Z,10.15
2023-04-25T02:34:03.750Z,9.93
2023-04-25T02:36:33.239Z,10.21
2023-04-25T02:39:00.033Z,10.22
2023-04-25T02:41:27.769Z,10.08
2023-04-25T02:43:56.154Z,9.95
2023-04-25T02:46:32.036Z,10.09
2023-04-25T02:49:04.980Z,9.43
2023-04-25T02:51:32.199Z,9.82
2023-04-25T02:53:59.828Z,9.96
2023-04-25T02:56:27.818Z,10.05
2023-04-25T02:58:54.927Z,10.04
2023-04-25T03:01:22.320Z,10.04
2023-04-25T03:03:49.715Z,9.77
2023-04-25T03:06:17.029Z,10.10
2023-04-25T03:08:44.388Z,10.02
2023-04-25T03:11:11.659Z,10.08
2023-04-25T03:13:41.336Z,9.75
2023-04-25T03:16:09.782Z,10.08
2023-04-25T03:18:36.718Z,10.00
2023-04-25T03:21:03.835Z,10.19
2023-04-25T03:23:31.764Z,9.68
2023-04-25T03:25:58.652Z,10.23
2023-04-25T03:28:25.644Z,9.80
2023-04-25T03:30:53.363Z,10.26
2023-04-25T03:33:20.136Z,9.97
2023-04-25T03:35:46.943Z,10.09
2023-04-25T03:38:13.800Z,10.36
2023-04-25T03:40:41.376Z,10.35
2023-04-25T03:43:28.442Z,10.20
2023-04-25T03:46:01.558Z,10.33
2023-04-25T03:48:28.753Z,10.36
2023-04-25T03:50:56.056Z,10.30
2023-04-25T03:53:23.131Z,10.06
2023-04-25T03:56:10.462Z,9.65
2023-04-25T03:58:38.786Z,10.32
2023-04-25T04:01:08.713Z,9.89
2023-04-25T04:03:38.379Z,10.30
2023-04-25T04:06:10.094Z,10.31
2023-04-25T04:08:39.969Z,10.45
2023-04-25T04:11:11.785Z,10.28
2023-04-25T04:13:39.084Z,10.29
2023-04-25T04:16:07.040Z,10.22
2023-04-25T04:18:34.452Z,10.15
2023-04-25T04:21:02.408Z,9.68
2023-04-25T04:23:32.224Z,10.55
2023-04-25T04:26:00.053Z,10.64
2023-04-25T04:28:55.344Z,10.63
2023-04-25T04:31:38.881Z,10.28
2023-04-25T04:34:07.075Z,10.65
2023-04-25T04:36:35.000Z,10.68
2023-04-25T04:39:02.968Z,10.62
2023-04-25T04:41:36.125Z,10.78
2023-04-25T04:44:13.333Z,10.38
2023-04-25T04:46:47.944Z,10.57
2023-04-25T04:49:44.053Z,10.56
2023-04-25T04:52:33.077Z,11.06
2023-04-25T04:55:18.458Z,11.13
2023-04-25T04:58:03.878Z,11.00
2023-04-25T05:00:49.245Z,11.07
2023-04-25T05:03:51.563Z,10.65
2023-04-25T05:06:37.396Z,11.18
2023-04-25T05:09:33.957Z,11.07
2023-04-25T05:12:06.844Z,11.44
2023-04-25T05:14:52.518Z,11.63
2023-04-25T05:17:38.220Z,11.69
2023-04-25T05:20:16.824Z,11.92
2023-04-25T05:23:02.247Z,11.99
2023-04-25T05:25:54.493Z,11.90
2023-04-25T05:28:31.784Z,11.94
2023-04-25T05:31:10.960Z,11.84
2023-04-25T05:34:00.757Z,11.76
2023-04-25T05:36:37.706Z,11.30
2023-04-25T05:39:05.421Z,11.30
2023-04-25T05:41:50.617Z,11.27
2023-04-25T05:44:35.834Z,11.42
2023-04-25T05:47:16.356Z,11.51
2023-04-25T05:49:57.836Z,11.72
2023-04-25T05:52:37.495Z,11.76
2023-04-25T05:55:12.812Z,11.74
2023-04-25T05:57:42.472Z,11.47
2023-04-25T06:00:14.430Z,11.80
2023-04-25T06:02:41.983Z,11.35
2023-04-25T06:05:10.805Z,11.32
2023-04-25T06:07:37.897Z,11.37
2023-04-25T06:10:09.962Z,11.57
2023-04-25T06:12:36.816Z,11.59
2023-04-25T06:15:13.239Z,11.65
2023-04-25T06:17:51.111Z,11.69
2023-04-25T06:20:24.219Z,11.79
2023-04-25T06:22:52.830Z,11.97
2023-04-25T06:25:22.098Z,11.88
2023-04-25T06:27:49.018Z,11.67
2023-04-25T06:30:19.288Z,12.14
2023-04-25T06:32:46.321Z,11.75
2023-04-25T06:35:14.036Z,12.25
2023-04-25T06:37:41.570Z,11.81
2023-04-25T06:40:09.464Z,12.17
2023-04-25T06:42:36.376Z,12.21
2023-04-25T06:45:23.100Z,12.32
2023-04-25T06:47:49.840Z,12.43
2023-04-25T06:50:19.395Z,12.54
2023-04-25T06:52:46.341Z,12.37
2023-04-25T06:55:15.835Z,12.59
2023-04-25T06:57:57.591Z,12.50
2023-04-25T07:00:43.189Z,12.63
2023-04-25T07:03:10.618Z,12.33
2023-04-25T07:05:40.509Z,12.42
2023-04-25T07:08:07.320Z,12.05
2023-04-25T07:10:34.214Z,11.99
2023-04-25T07:13:05.745Z,11.86
2023-04-25T07:15:32.539Z,11.92
2023-04-25T07:18:02.836Z,12.06
2023-04-25T07:21:06.378Z,12.17
2023-04-25T07:23:35.032Z,12.21
2023-04-25T07:26:08.841Z,11.97
2023-04-25T07:28:36.294Z,12.02
2023-04-25T07:31:03.743Z,11.54
2023-04-25T07:33:32.399Z,11.27
2023-04-25T07:35:59.281Z,10.93
2023-04-25T07:38:26.062Z,11.13
2023-04-25T07:40:55.798Z,11.02
2023-04-25T07:43:22.654Z,10.94
2023-04-25T07:45:55.683Z,10.29
2023-04-25T07:48:32.311Z,10.66
2023-04-25T07:51:01.250Z,10.67
2023-04-25T07:53:28.669Z,10.26
2023-04-25T07:56:03.115Z,10.80
2023-04-25T07:58:33.464Z,10.94
2023-04-25T08:01:05.428Z,11.04
2023-04-25T08:03:52.858Z,10.97
2023-04-25T08:06:24.350Z,10.94
2023-04-25T08:09:08.823Z,11.36
2023-04-25T08:11:39.394Z,11.59
2023-04-25T08:14:08.536Z,12.36
2023-04-25T08:16:36.100Z,12.57
2023-04-25T08:19:03.485Z,12.87
2023-04-25T08:21:33.240Z,13.05
2023-04-25T08:24:04.211Z,13.20
2023-04-25T08:26:35.478Z,13.36
2023-04-25T08:29:02.677Z,13.43
2023-04-25T08:31:29.629Z,13.18
2023-04-25T08:34:16.725Z,13.88
2023-04-25T08:36:47.427Z,14.00
2023-04-25T08:39:21.909Z,14.81
2023-04-25T08:42:13.470Z,14.40
2023-04-25T08:44:40.484Z,14.83
2023-04-25T08:47:07.874Z,14.73
2023-04-25T08:49:46.981Z,14.26
2023-04-25T08:52:15.025Z,14.60
2023-04-25T08:54:54.506Z,14.57
2023-04-25T08:57:22.812Z,14.61
2023-04-25T08:59:52.959Z,15.00
2023-04-25T09:02:23.050Z,14.86
2023-04-25T09:04:52.753Z,15.46
2023-04-25T09:07:22.180Z,15.91
2023-04-25T09:09:49.469Z,15.69
2023-04-25T09:12:24.517Z,15.93
2023-04-25T09:15:12.320Z,16.52
2023-04-25T09:18:00.030Z,16.33
2023-04-25T09:20:37.795Z,16.57
2023-04-25T09:23:12.380Z,17.23
2023-04-25T09:25:41.581Z,17.09
2023-04-25T09:28:12.416Z,17.45
2023-04-25T09:30:39.435Z,17.16
2023-04-25T09:33:12.280Z,18.36
2023-04-25T09:35:46.028Z,18.58
2023-04-25T09:38:20.438Z,18.36
2023-04-25T09:40:57.975Z,18.91
2023-04-25T09:43:39.880Z,19.40
2023-04-25T09:46:12.895Z,19.30
2023-04-25T09:48:51.050Z,19.58
2023-04-25T09:51:27.753Z,19.21
2023-04-25T09:53:55.680Z,19.72
2023-04-25T09:56:43.678Z,19.60
2023-04-25T09:59:12.548Z,19.58
2023-04-25T10:01:42.407Z,20.26
2023-04-25T10:04:25.482Z,20.52
2023-04-25T10:07:08.997Z,21.25
2023-04-25T10:09:40.938Z,21.06
2023-04-25T10:12:09.042Z,21.64
2023-04-25T10:14:36.774Z,22.08
2023-04-25T10:17:03.534Z,22.03
2023-04-25T10:19:30.939Z,22.08
2023-04-25T10:22:18.311Z,22.89
2023-04-25T10:24:49.177Z,23.31
2023-04-25T10:27:16.085Z,23.27
2023-04-25T10:29:45.318Z,24.06
2023-04-25T10:32:12.225Z,24.13
2023-04-25T10:34:47.929Z,24.06
2023-04-25T10:37:15.054Z,23.44
2023-04-25T10:39:44.175Z,23.63
2023-04-25T10:42:11.036Z,23.93
2023-04-25T10:44:40.340Z,24.41
2023-04-25T10:47:09.401Z,24.92
2023-04-25T10:49:43.253Z,24.99
2023-04-25T10:52:30.700Z,24.35
2023-04-25T10:54:58.934Z,23.03
2023-04-25T10:57:30.442Z,23.19
2023-04-25T11:00:01.929Z,24.05
2023-04-25T11:02:32.491Z,24.90
2023-04-25T11:05:02.486Z,25.44
2023-04-25T11:08:00.088Z,26.22
2023-04-25T11:10:36.811Z,25.01
2023-04-25T11:13:04.506Z,24.90
2023-04-25T11:15:34.945Z,24.93
2023-04-25T11:18:04.779Z,24.53
2023-04-25T11:20:31.854Z,22.98
2023-04-25T11:25:38.788Z,20.72
2023-04-25T11:28:08.637Z,20.76
2023-04-25T11:30:35.577Z,20.47
2023-04-25T11:33:07.748Z,20.25
2023-04-25T11:35:34.873Z,20.05
2023-04-25T11:38:02.379Z,19.60
2023-04-25T11:40:32.709Z,19.08
2023-04-25T11:43:04.088Z,18.43
2023-04-25T11:45:33.966Z,18.21
2023-04-25T11:48:03.308Z,16.70
2023-04-25T11:50:30.474Z,16.46
2023-04-25T11:52:57.915Z,15.20
2023-04-25T11:55:24.664Z,13.38
2023-04-25T11:57:51.674Z,13.78
2023-04-25T12:00:23.572Z,13.38
2023-04-25T12:02:56.002Z,13.16
2023-04-25T12:05:33.788Z,13.78
2023-04-25T12:08:15.468Z,13.17
2023-04-25T12:10:44.442Z,14.26
2023-04-25T12:13:22.894Z,14.57
2023-04-25T12:15:50.001Z,14.90
2023-04-25T12:18:26.215Z,15.25
2023-04-25T12:20:56.270Z,15.59
2023-04-25T12:23:31.705Z,15.93
2023-04-25T12:25:58.822Z,18.15
2023-04-25T12:28:28.360Z,23.62
2023-04-25T12:30:58.790Z,26.88
2023-04-25T12:33:27.921Z,28.20
2023-04-25T12:35:55.976Z,30.66
2023-04-25T12:38:27.288Z,33.41
2023-04-25T12:40:54.798Z,34.33
2023-04-25T12:43:22.673Z,34.64
2023-04-25T12:45:51.503Z,35.04
2023-04-25T12:48:22.137Z,34.99
2023-04-25T12:50:50.431Z,33.99
2023-04-25T12:53:22.325Z,32.43
2023-04-25T12:55:52.209Z,32.45
2023-04-25T12:58:20.983Z,31.94
2023-04-25T13:00:48.820Z,30.92
2023-04-25T13:03:15.804Z,31.05
2023-04-25T13:05:43.301Z,30.61
2023-04-25T13:08:10.588Z,29.94
2023-04-25T13:10:40.995Z,30.40
2023-04-25T13:13:07.777Z,30.58
2023-04-25T13:15:34.608Z,30.79
2023-04-25T13:18:06.621Z,30.92
2023-04-25T13:20:34.163Z,31.12
2023-04-25T13:23:03.487Z,32.20
2023-04-25T13:25:30.344Z,33.11
2023-04-25T13:27:57.206Z,33.01
2023-04-25T13:30:24.116Z,31.63
2023-04-25T13:32:51.001Z,31.25
2023-04-25T13:35:17.813Z,31.44
2023-04-25T13:37:46.595Z,29.52
2023-04-25T13:40:13.408Z,28.23
2023-04-25T13:42:40.598Z,27.58
2023-04-25T13:45:08.605Z,27.14
2023-04-25T13:47:37.762Z,27.02
2023-04-25T13:50:06.649Z,26.95
2023-04-25T13:52:33.372Z,25.62
2023-04-25T13:55:00.655Z,25.91
2023-04-25T13:57:27.502Z,27.94
2023-04-25T13:59:57.355Z,27.91
2023-04-25T14:02:28.892Z,27.32
2023-04-25T14:04:55.827Z,26.40
2023-04-25T14:07:22.795Z,25.77
2023-04-25T14:09:53.636Z,24.40
2023-04-25T14:12:24.094Z,22.81
2023-04-25T14:14:51.259Z,21.01
2023-04-25T14:17:21.241Z,21.23
2023-04-25T14:19:49.167Z,20.50
2023-04-25T14:22:16.943Z,20.19
2023-04-25T14:24:49.502Z,19.79
2023-04-25T14:27:18.570Z,19.57
2023-04-25T14:29:45.402Z,19.55
2023-04-25T14:32:15.517Z,19.07
2023-04-25T14:34:44.620Z,19.30
2023-04-25T14:37:14.346Z,18.72
2023-04-25T14:39:41.423Z,18.75
2023-04-25T14:42:08.327Z,18.62
2023-04-25T14:44:38.074Z,18.50
2023-04-25T14:47:04.871Z,18.25
2023-04-25T14:49:37.628Z,17.93
2023-04-25T14:52:04.454Z,18.06
2023-04-25T14:54:33.671Z,17.65
2023-04-25T14:57:01.967Z,17.84
2023-04-25T14:59:29.131Z,17.66
2023-04-25T15:01:59.710Z,17.73
2023-04-25T15:04:29.885Z,17.78
2023-04-25T15:06:57.180Z,17.83
2023-04-25T15:09:26.181Z,17.35
2023-04-25T15:11:53.024Z,17.54
2023-04-25T15:14:21.991Z,17.57
2023-04-25T15:16:48.795Z,17.44
2023-04-25T15:19:15.995Z,17.13
2023-04-25T15:21:43.069Z,16.78
2023-04-25T15:24:12.298Z,17.10
2023-04-25T15:26:44.878Z,17.09
2023-04-25T15:29:16.947Z,17.14
2023-04-25T15:31:46.318Z,16.82
2023-04-25T15:34:15.351Z,17.01
2023-04-25T15:36:44.981Z,17.07
2023-04-25T15:39:13.708Z,17.12
2023-04-25T15:41:45.807Z,17.18
2023-04-25T15:44:12.616Z,17.38
2023-04-25T15:46:42.504Z,17.43
2023-04-25T15:49:12.307Z,17.67
2023-04-25T15:51:41.664Z,17.60
2023-04-25T15:54:09.110Z,17.43
2023-04-25T15:56:35.984Z,17.47
2023-04-25T15:59:07.570Z,17.49
2023-04-25T16:01:40.522Z,17.03
2023-04-25T16:04:07.507Z,17.30
2023-04-25T16:06:34.901Z,17.52
2023-04-25T16:09:06.652Z,17.59
2023-04-25T16:11:33.950Z,17.58
2023-04-25T16:14:00.894Z,17.21
2023-04-25T16:16:30.771Z,17.43
2023-04-25T16:19:03.238Z,17.42
2023-04-25T16:22:02.523Z,17.52
2023-04-25T16:24:31.547Z,17.42
2023-04-25T16:26:59.075Z,17.28
2023-04-25T16:29:26.098Z,17.37
2023-04-25T16:31:52.977Z,17.12
2023-04-25T16:34:19.964Z,17.27
2023-04-25T16:36:46.902Z,16.78
2023-04-25T16:39:13.784Z,17.13
2023-04-25T16:41:43.884Z,17.08
2023-04-25T16:44:10.681Z,16.76
2023-04-25T16:46:41.222Z,17.05
2023-04-25T16:49:11.107Z,16.39
2023-04-25T16:51:40.862Z,16.93
2023-04-25T16:54:07.890Z,16.90
2023-04-25T16:56:34.742Z,16.76
2023-04-25T16:59:02.109Z,16.80
2023-04-25T17:01:28.991Z,16.54
2023-04-25T17:03:56.598Z,16.80
2023-04-25T17:06:29.828Z,16.38
2023-04-25T17:08:56.837Z,16.66
2023-04-25T17:11:26.075Z,16.65
2023-04-25T17:13:58.481Z,16.57
2023-04-25T17:16:36.881Z,16.49
2023-04-25T17:19:04.971Z,16.24
2023-04-25T17:21:32.046Z,16.11
2023-04-25T17:24:01.285Z,16.28
2023-04-25T17:26:30.248Z,16.15
2023-04-25T17:28:57.059Z,15.94
2023-04-25T17:31:28.341Z,15.69
2023-04-25T17:33:57.811Z,15.86
2023-04-25T17:36:24.703Z,15.99
2023-04-25T17:38:57.092Z,15.81
2023-04-25T17:41:26.012Z,15.57
2023-04-25T17:43:54.354Z,15.18
2023-04-25T17:46:21.559Z,15.45
2023-04-25T17:48:49.573Z,15.17
2023-04-25T17:51:22.424Z,14.98
2023-04-25T17:53:49.525Z,15.61
2023-04-25T17:56:26.613Z,15.67
2023-04-25T17:58:54.861Z,15.31
2023-04-25T18:01:26.104Z,14.71
2023-04-25T18:03:58.732Z,15.21
2023-04-25T18:06:28.265Z,15.75
2023-04-25T18:08:57.700Z,15.75
2023-04-25T18:11:25.459Z,15.72
2023-04-25T18:13:57.739Z,15.61
2023-04-25T18:16:31.641Z,15.25
2023-04-25T18:19:05.357Z,15.02
2023-04-25T18:21:32.510Z,14.80
2023-04-25T18:23:59.213Z,14.79
2023-04-25T18:26:26.040Z,14.44
2023-04-25T18:28:53.074Z,14.60
2023-04-25T18:31:25.255Z,14.16
2023-04-25T18:36:46.864Z,13.92
2023-04-25T18:39:27.951Z,14.40
2023-04-25T18:42:05.872Z,14.03
2023-04-25T18:44:41.261Z,14.10
2023-04-25T18:47:10.255Z,14.44
2023-04-25T18:49:37.618Z,14.48
2023-04-25T18:52:06.893Z,14.47
2023-04-25T18:54:37.158Z,14.52
2023-04-25T18:57:06.033Z,14.28
2023-04-25T18:59:33.691Z,14.42
2023-04-25T19:02:02.012Z,14.52
2023-04-25T19:04:32.335Z,14.50
2023-04-25T19:06:59.849Z,14.45
2023-04-25T19:09:29.915Z,13.91
2023-04-25T19:11:57.472Z,14.08
2023-04-25T19:14:26.805Z,14.01
2023-04-25T19:16:54.229Z,14.25
2023-04-25T19:19:21.906Z,14.16
2023-04-25T19:21:50.415Z,13.70
2023-04-25T19:24:17.895Z,14.03
2023-04-25T19:26:49.796Z,13.67
2023-04-25T19:29:19.393Z,13.80
2023-04-25T19:31:46.440Z,13.97
2023-04-25T19:34:13.991Z,13.68
2023-04-25T19:36:42.599Z,13.78
2023-04-25T19:39:09.860Z,13.88
2023-04-25T19:41:40.379Z,13.90
2023-04-25T19:44:11.714Z,13.91
2023-04-25T19:46:38.922Z,13.87
2023-04-25T19:49:08.928Z,13.73
2023-04-25T19:51:39.552Z,13.84
2023-04-25T19:54:09.300Z,13.81
2023-04-25T19:56:36.922Z,13.79
2023-04-25T19:59:05.007Z,13.17
2023-04-25T20:01:31.802Z,13.32
2023-04-25T20:04:02.071Z,13.59
2023-04-25T20:06:32.691Z,13.23
2023-04-25T20:08:59.777Z,13.52
2023-04-25T20:11:32.336Z,13.44
2023-04-25T20:13:59.511Z,13.38
2023-04-25T20:16:28.709Z,13.33
2023-04-25T20:18:56.222Z,13.33
2023-04-25T20:21:23.804Z,13.33
2023-04-25T20:23:50.995Z,13.34
2023-04-25T20:26:22.645Z,13.19
2023-04-25T20:28:49.922Z,12.92
2023-04-25T20:31:17.081Z,12.49
2023-04-25T20:33:44.053Z,13.20
2023-04-25T20:36:12.941Z,13.27
2023-04-25T20:38:42.533Z,13.13
2023-04-25T20:41:09.484Z,12.87
2023-04-25T20:43:39.920Z,12.99
2023-04-25T20:46:06.753Z,12.91
2023-04-25T20:48:35.746Z,13.08
2023-04-25T20:51:03.928Z,12.99
2023-04-25T20:53:31.169Z,13.08
2023-04-25T20:56:01.121Z,12.84
2023-04-25T20:58:31.790Z,12.59
2023-04-25T21:00:58.976Z,12.60
2023-04-25T21:03:26.199Z,12.80
2023-04-25T21:05:53.132Z,12.47
2023-04-25T21:08:22.035Z,12.66
2023-04-25T21:10:53.183Z,12.59
2023-04-25T21:13:22.897Z,11.55
2023-04-25T21:15:51.551Z,11.91
2023-04-25T21:18:18.374Z,12.32
2023-04-25T21:20:46.237Z,12.23
2023-04-25T21:23:13.279Z,11.39
2023-04-25T21:25:40.079Z,11.55
2023-04-25T21:28:14.907Z,11.61
2023-04-25T21:30:43.886Z,12.01
2023-04-25T21:33:12.946Z,11.62
2023-04-25T21:35:42.220Z,11.82
2023-04-25T21:38:08.989Z,11.71
2023-04-25T21:40:43.106Z,11.83
2023-04-25T21:43:13.111Z,11.83
2023-04-25T21:46:05.754Z,11.14
2023-04-25T21:48:31.278Z,11.81
2023-04-25T21:51:01.303Z,11.80
2023-04-25T21:53:32.269Z,11.80
2023-04-25T21:55:59.454Z,11.76
2023-04-25T21:58:26.250Z,11.71
2023-04-25T22:00:55.653Z,11.24
2023-04-25T22:03:22.448Z,11.21
2023-04-25T22:05:51.894Z,11.52
2023-04-25T22:08:18.615Z,11.61
2023-04-25T22:10:47.518Z,11.45
2023-04-25T22:13:17.236Z,11.60
2023-04-25T22:15:44.003Z,11.36
2023-04-25T22:18:11.218Z,11.60
2023-04-25T22:20:40.389Z,11.58
2023-04-25T22:23:07.164Z,11.55
2023-04-25T22:25:34.453Z,11.13
2023-04-25T22:28:01.193Z,11.23
2023-04-25T22:30:35.307Z,11.20
2023-04-25T22:33:04.632Z,11.24
2023-04-25T22:35:31.709Z,10.71
2023-04-25T22:37:58.435Z,10.78
2023-04-25T22:40:25.200Z,10.75
2023-04-25T22:42:51.930Z,11.26
2023-04-25T22:45:18.722Z,10.97
2023-04-25T22:47:45.466Z,11.21
2023-04-25T22:50:13.897Z,11.19
2023-04-25T22:52:42.351Z,10.82
2023-04-25T22:55:10.944Z,11.03
2023-04-25T22:57:38.829Z,11.20
2023-04-25T23:00:27.585Z,10.91
2023-04-25T23:02:54.909Z,10.75
2023-04-25T23:05:24.497Z,10.13
2023-04-25T23:07:51.338Z,11.04
2023-04-25T23:10:19.360Z,10.48
2023-04-25T23:12:46.536Z,10.94
2023-04-25T23:15:13.742Z,10.64
2023-04-25T23:17:40.929Z,10.77
2023-04-25T23:20:10.685Z,10.61
2023-04-25T23:22:38.138Z,10.62
2023-04-25T23:25:05.445Z,10.01
2023-04-25T23:27:32.264Z,10.12
2023-04-25T23:29:59.040Z,10.09
2023-04-25T23:32:26.417Z,9.96
2023-04-25T23:34:53.378Z,10.52
2023-04-25T23:37:20.176Z,10.74
2023-04-25T23:39:50.998Z,10.79
2023-04-25T23:42:21.575Z,10.83
2023-04-25T23:44:49.918Z,10.74
2023-04-25T23:47:18.976Z,10.38
2023-04-25T23:49:45.909Z,10.89
2023-04-25T23:54:39.812Z,10.62
2023-04-25T23:57:08.971Z,10.20
2023-04-25T23:59:35.739Z,10.79
